Time;durP1;ratioP1;P1;durP2;ratioP2;P2;SDS_P1;SDS_P2;PMS_P1;PMS_P2;Temp;Humidity;BMP_temperature;BMP_pressure;BME280_temperature;BME280_humidity;BME280_pressure;Samples;Min_cycle;Max_cycle;Signal;HPM_P1;HPM_P2
2022/05/01 00:01:17;;;;;;;10.27;7.65;;;8.40;99.90;;;;;;5009771;28;20029;-68
2022/05/01 00:03:43;;;;;;;10.18;7.57;;;8.40;99.90;;;;;;5008186;28;20034;-68
2022/05/01 00:06:11;;;;;;;10.52;8.25;;;8.30;99.90;;;;;;5010527;28;20511;-68
2022/05/01 00:08:42;;;;;;;10.27;9.05;;;8.30;99.90;;;;;;5010094;28;20524;-68
2022/05/01 00:11:08;;;;;;;11.93;8.25;;;8.30;99.90;;;;;;5010683;28;20108;-68
2022/05/01 00:13:35;;;;;;;12.70;8.23;;;8.20;99.90;;;;;;5008072;28;20156;-68
2022/05/01 00:16:01;;;;;;;10.93;8.15;;;8.20;99.90;;;;;;5010856;28;20034;-68
2022/05/01 00:18:26;;;;;;;9.15;8.25;;;8.20;99.90;;;;;;5008733;28;20056;-68
2022/05/01 00:20:53;;;;;;;12.80;9.27;;;8.20;99.90;;;;;;5009415;28;20037;-68
2022/05/01 00:23:19;;;;;;;12.00;8.65;;;8.10;99.90;;;;;;5009544;28;20400;-68
2022/05/01 00:25:45;;;;;;;11.82;9.02;;;8.10;99.90;;;;;;5006942;28;20046;-68
2022/05/01 00:28:11;;;;;;;11.68;8.80;;;8.10;99.90;;;;;;5041811;28;20599;-68
2022/05/01 00:30:37;;;;;;;12.70;9.15;;;8.80;99.90;;;;;;5010513;28;20156;-68
2022/05/01 00:38:33;;;;;;;11.18;9.20;;;8.10;99.90;;;;;;5007490;28;20045;-68
2022/05/01 00:41:00;;;;;;;11.20;9.35;;;8.10;99.90;;;;;;4992003;28;20038;-68
2022/05/01 00:43:26;;;;;;;15.27;10.23;;;8.10;99.90;;;;;;5008865;28;20045;-68
2022/05/01 00:45:51;;;;;;;10.15;9.15;;;8.10;99.90;;;;;;5009684;28;20279;-68
2022/05/01 00:48:17;;;;;;;10.52;9.52;;;8.10;99.90;;;;;;5010054;28;20544;-68
2022/05/01 00:50:43;;;;;;;11.85;10.73;;;8.10;99.90;;;;;;5005858;28;20056;-68
2022/05/01 00:53:10;;;;;;;13.90;9.45;;;8.10;99.90;;;;;;5008709;28;20087;-68
2022/05/01 00:55:37;;;;;;;11.63;10.38;;;8.10;99.90;;;;;;5009126;28;20046;-68
2022/05/01 00:58:05;;;;;;;14.38;9.07;;;8.00;99.90;;;;;;5009891;28;20037;-68
2022/05/01 01:00:31;;;;;;;13.18;9.48;;;8.00;99.90;;;;;;5010991;28;20113;-68
2022/05/01 01:02:57;;;;;;;11.20;10.10;;;8.10;99.90;;;;;;5009759;28;20124;-68
2022/05/01 01:05:23;;;;;;;11.45;10.00;;;8.00;99.90;;;;;;5039071;28;20042;-68
2022/05/01 01:07:48;;;;;;;12.63;10.18;;;8.00;99.90;;;;;;5007582;28;20053;-68
2022/05/01 01:10:14;;;;;;;10.43;9.43;;;8.00;99.90;;;;;;5008534;28;20072;-68
2022/05/01 01:12:55;;;;;;;11.90;10.68;;;8.10;99.90;;;;;;5010655;28;20045;-68
2022/05/01 01:15:28;;;;;;;11.35;10.13;;;8.00;99.90;;;;;;5008946;28;20048;-68
2022/05/01 01:17:54;;;;;;;13.35;10.70;;;8.00;99.90;;;;;;5010046;28;20033;-68
2022/05/01 01:20:22;;;;;;;12.05;9.73;;;8.00;99.90;;;;;;5006468;28;20076;-68
2022/05/01 01:22:49;;;;;;;12.18;10.18;;;8.00;99.90;;;;;;5007647;28;20138;-68
2022/05/01 01:25:31;;;;;;;12.45;10.43;;;8.00;99.90;;;;;;5007003;28;20037;-68
2022/05/01 01:28:05;;;;;;;10.48;9.30;;;8.00;99.90;;;;;;5007805;28;20042;-68
2022/05/01 01:33:17;;;;;;;17.17;10.95;;;8.00;99.90;;;;;;5010045;28;20042;-68
2022/05/01 01:35:45;;;;;;;14.68;10.95;;;8.00;99.90;;;;;;5040872;28;20041;-68
2022/05/01 01:38:11;;;;;;;12.20;10.98;;;8.00;99.90;;;;;;5016962;28;20034;-68
2022/05/01 01:40:48;;;;;;;13.60;9.98;;;8.00;99.90;;;;;;5008733;28;20104;-68
2022/05/01 01:43:18;;;;;;;11.18;9.52;;;8.00;99.90;;;;;;5008510;28;20677;-68
2022/05/01 01:45:43;;;;;;;12.38;10.20;;;8.00;99.90;;;;;;5005207;28;20365;-68
2022/05/01 01:48:10;;;;;;;10.13;9.20;;;8.00;99.90;;;;;;5006100;28;20140;-68
2022/05/01 01:50:36;;;;;;;13.65;9.77;;;8.00;99.90;;;;;;5006887;28;20396;-68
2022/05/01 01:53:02;;;;;;;12.25;9.32;;;8.00;99.90;;;;;;5008942;28;20132;-68
2022/05/01 01:55:31;;;;;;;13.15;10.18;;;8.00;99.90;;;;;;5006276;28;20049;-68
2022/05/01 01:57:56;;;;;;;13.88;10.20;;;8.00;99.90;;;;;;5007599;28;20616;-68
2022/05/01 02:00:22;;;;;;;10.05;9.07;;;8.00;99.90;;;;;;5006863;28;20061;-67
2022/05/01 02:02:47;;;;;;;12.13;10.20;;;7.90;99.90;;;;;;5007682;28;20092;-68
2022/05/01 02:05:13;;;;;;;10.32;9.15;;;7.90;99.90;;;;;;5008395;28;20401;-68
2022/05/01 02:07:39;;;;;;;10.20;9.18;;;7.90;99.90;;;;;;5008415;28;20141;-68
2022/05/01 02:10:06;;;;;;;9.10;7.78;;;7.90;99.90;;;;;;5008295;28;20042;-68
2022/05/01 02:12:33;;;;;;;10.77;9.70;;;7.90;99.90;;;;;;5039243;28;20042;-68
2022/05/01 02:14:59;;;;;;;11.50;10.00;;;7.90;99.90;;;;;;5008879;28;20042;-68
2022/05/01 02:17:25;;;;;;;10.35;9.30;;;7.80;99.90;;;;;;5037209;28;20488;-68
2022/05/01 02:19:50;;;;;;;12.93;9.63;;;7.80;99.90;;;;;;5005752;28;20057;-68
2022/05/01 02:22:16;;;;;;;14.27;10.48;;;7.80;99.90;;;;;;5007436;28;20045;-68
2022/05/01 02:24:41;;;;;;;11.77;10.05;;;7.80;99.90;;;;;;5009044;28;20041;-68
2022/05/01 02:27:07;;;;;;;11.85;10.48;;;7.70;99.90;;;;;;5008341;28;20073;-68
2022/05/01 02:29:32;;;;;;;11.38;9.77;;;7.70;99.90;;;;;;5004938;28;20037;-68
2022/05/01 02:31:58;;;;;;;13.20;9.93;;;7.70;99.90;;;;;;5006939;28;20400;-67
2022/05/01 02:34:24;;;;;;;12.20;10.63;;;7.60;99.90;;;;;;5008128;28;20038;-68
2022/05/01 02:36:51;;;;;;;11.02;9.80;;;7.60;99.90;;;;;;5007568;28;20487;-68
2022/05/01 02:39:19;;;;;;;11.07;9.55;;;7.60;99.90;;;;;;5007595;28;20083;-68
2022/05/01 02:41:46;;;;;;;16.17;10.52;;;7.60;99.90;;;;;;5008161;28;20034;-68
2022/05/01 02:44:11;;;;;;;11.77;10.15;;;7.50;99.90;;;;;;5008207;28;20485;-68
2022/05/01 02:46:38;;;;;;;12.10;11.00;;;7.50;99.90;;;;;;5005950;28;20053;-68
2022/05/01 02:49:07;;;;;;;13.50;10.80;;;7.60;99.90;;;;;;5038906;28;20049;-68
2022/05/01 02:51:32;;;;;;;11.60;10.05;;;7.50;99.90;;;;;;5008452;28;20141;-68
2022/05/01 02:54:04;;;;;;;12.73;10.48;;;7.50;99.90;;;;;;5008971;28;20042;-68
2022/05/01 02:56:30;;;;;;;12.93;10.82;;;7.50;99.90;;;;;;5038234;28;20058;-68
2022/05/01 02:58:57;;;;;;;15.15;10.65;;;7.40;99.90;;;;;;5011657;28;20520;-68
2022/05/01 03:01:23;;;;;;;13.15;9.43;;;7.40;99.90;;;;;;5010530;28;20119;-68
2022/05/01 03:03:49;;;;;;;12.90;10.98;;;7.40;99.90;;;;;;5012680;28;20041;-68
2022/05/01 03:06:15;;;;;;;12.88;11.50;;;7.30;99.90;;;;;;5044522;28;20046;-68
2022/05/01 03:08:41;;;;;;;15.65;10.98;;;7.30;99.90;;;;;;5010188;28;20121;-67
2022/05/01 03:11:07;;;;;;;11.90;10.60;;;7.30;99.90;;;;;;5042959;28;20092;-68
2022/05/01 03:13:32;;;;;;;12.15;10.93;;;7.30;99.90;;;;;;5010664;28;20136;-67
2022/05/01 03:15:58;;;;;;;14.07;11.40;;;7.30;99.90;;;;;;5012077;28;20097;-68
2022/05/01 03:23:52;;;;;;;14.50;11.63;;;7.20;99.90;;;;;;5009570;28;20042;-68
2022/05/01 03:26:18;;;;;;;12.18;10.93;;;7.10;99.90;;;;;;5010764;28;20038;-67
2022/05/01 03:28:45;;;;;;;12.05;10.85;;;7.10;99.90;;;;;;5009331;28;20087;-68
2022/05/01 03:31:11;;;;;;;11.93;10.73;;;7.00;99.90;;;;;;5040918;28;20049;-67
2022/05/01 03:33:37;;;;;;;12.55;11.10;;;7.00;99.90;;;;;;5011535;28;20042;-68
2022/05/01 03:36:06;;;;;;;13.05;11.13;;;7.00;99.90;;;;;;5011038;28;20488;-68
2022/05/01 03:38:33;;;;;;;12.45;11.00;;;6.90;99.90;;;;;;5012779;28;20045;-68
2022/05/01 03:40:59;;;;;;;11.88;10.32;;;6.90;99.90;;;;;;5012242;28;20549;-68
2022/05/01 03:43:25;;;;;;;11.32;10.23;;;6.90;99.90;;;;;;5009140;28;20180;-68
2022/05/01 03:45:50;;;;;;;12.25;11.05;;;6.80;99.90;;;;;;5010056;28;20076;-67
2022/05/01 03:48:16;;;;;;;11.20;10.13;;;6.70;99.90;;;;;;5011860;28;20053;-68
2022/05/01 03:50:41;;;;;;;11.85;10.02;;;6.70;99.90;;;;;;5008659;28;20042;-68
2022/05/01 03:53:07;;;;;;;13.85;9.77;;;6.60;99.90;;;;;;5010295;28;20038;-68
2022/05/01 03:55:33;;;;;;;11.90;10.73;;;6.60;99.90;;;;;;5007158;28;20054;-68
2022/05/01 03:58:00;;;;;;;13.57;11.85;;;6.60;99.90;;;;;;5009155;28;20045;-68
2022/05/01 04:00:27;;;;;;;13.68;11.52;;;6.50;99.90;;;;;;5008827;28;20446;-67
2022/05/01 04:02:53;;;;;;;15.65;13.20;;;6.60;99.90;;;;;;5009876;28;20041;-68
2022/05/01 04:05:19;;;;;;;13.40;12.20;;;6.50;99.90;;;;;;5025226;28;20041;-68
2022/05/01 04:07:45;;;;;;;14.05;12.65;;;6.50;99.90;;;;;;5043403;28;20041;-68
2022/05/01 04:10:11;;;;;;;13.30;11.93;;;6.40;99.90;;;;;;5008980;28;20037;-68
2022/05/01 04:12:42;;;;;;;15.80;12.88;;;6.30;99.90;;;;;;5006886;28;20046;-68
2022/05/01 04:15:09;;;;;;;17.88;15.32;;;6.30;99.90;;;;;;5009872;28;20050;-68
2022/05/01 04:17:40;;;;;;;17.20;15.15;;;6.30;99.90;;;;;;5007538;28;20041;-68
2022/05/01 04:20:08;;;;;;;16.67;14.40;;;6.30;99.90;;;;;;5009327;28;20034;-67
2022/05/01 04:22:41;;;;;;;16.30;13.95;;;6.30;99.90;;;;;;5010497;28;20469;-68
2022/05/01 04:25:32;;;;;;;17.20;15.50;;;6.30;99.90;;;;;;5010095;28;20062;-68
2022/05/01 04:28:03;;;;;;;17.08;14.95;;;6.30;99.90;;;;;;5040290;28;20077;-68
2022/05/01 04:30:31;;;;;;;16.90;14.68;;;6.30;99.90;;;;;;5007846;28;20042;-68
2022/05/01 04:32:58;;;;;;;18.75;15.75;;;6.30;99.90;;;;;;5007443;28;20041;-68
2022/05/01 04:35:31;;;;;;;17.83;15.70;;;6.40;99.90;;;;;;5010272;28;20069;-68
2022/05/01 04:38:07;;;;;;;16.05;14.48;;;6.40;99.90;;;;;;5008434;28;20048;-68
2022/05/01 04:40:40;;;;;;;18.90;14.85;;;6.40;99.90;;;;;;5010319;28;20412;-68
2022/05/01 04:43:07;;;;;;;18.92;14.40;;;6.30;99.90;;;;;;5040660;28;20034;-68
2022/05/01 04:45:34;;;;;;;15.95;14.40;;;6.30;99.90;;;;;;5039697;28;20092;-68
2022/05/01 04:48:01;;;;;;;13.90;12.48;;;6.30;99.90;;;;;;5039200;28;20046;-68
2022/05/01 04:50:27;;;;;;;14.07;12.68;;;6.30;99.90;;;;;;5010649;28;20117;-68
2022/05/01 04:52:54;;;;;;;13.32;12.02;;;6.40;99.90;;;;;;5008911;28;20042;-68
2022/05/01 04:55:19;;;;;;;13.10;11.75;;;6.50;99.90;;;;;;5041099;28;20073;-68
2022/05/01 04:57:45;;;;;;;11.45;10.30;;;6.90;99.90;;;;;;5011276;28;20110;-68
2022/05/01 05:00:13;;;;;;;12.52;11.13;;;7.20;99.90;;;;;;5008504;28;20058;-68
2022/05/01 05:02:44;;;;;;;13.48;12.07;;;7.50;99.90;;;;;;5008090;28;20061;-68
2022/05/01 05:05:11;;;;;;;13.27;12.02;;;7.70;99.90;;;;;;5006499;28;20072;-67
2022/05/01 05:07:37;;;;;;;12.10;10.90;;;8.00;99.90;;;;;;5041645;28;20040;-68
2022/05/01 05:10:04;;;;;;;12.68;11.25;;;8.30;99.90;;;;;;5010467;28;20049;-67
2022/05/01 05:12:31;;;;;;;11.70;10.57;;;8.60;99.90;;;;;;5009751;28;20468;-68
2022/05/01 05:14:59;;;;;;;13.77;11.90;;;9.10;99.90;;;;;;5008781;28;20105;-68
2022/05/01 05:17:26;;;;;;;12.60;10.63;;;9.70;99.90;;;;;;5007831;28;20081;-68
2022/05/01 05:19:51;;;;;;;11.70;10.50;;;10.70;99.90;;;;;;5007824;28;20041;-68
2022/05/01 05:22:17;;;;;;;12.00;9.93;;;11.80;99.90;;;;;;5008280;28;20045;-68
2022/05/01 05:24:43;;;;;;;11.30;10.13;;;13.10;99.90;;;;;;5007455;28;20042;-68
2022/05/01 05:27:09;;;;;;;9.60;8.70;;;14.50;99.90;;;;;;5010032;28;20559;-68
2022/05/01 05:29:35;;;;;;;14.00;9.77;;;15.80;99.90;;;;;;5009114;28;20041;-68
2022/05/01 05:32:00;;;;;;;9.57;8.15;;;16.80;99.90;;;;;;5008482;28;20045;-68
2022/05/01 05:34:27;;;;;;;10.35;9.23;;;17.80;99.90;;;;;;5007761;28;20068;-68
2022/05/01 05:36:52;;;;;;;10.20;9.30;;;18.80;95.80;;;;;;5005010;28;20100;-68
2022/05/01 05:39:18;;;;;;;9.27;7.97;;;19.60;91.70;;;;;;5008739;28;20049;-69
2022/05/01 05:41:44;;;;;;;12.15;9.45;;;20.20;86.40;;;;;;5004706;28;20026;-69
2022/05/01 05:44:11;;;;;;;9.07;8.18;;;21.10;83.70;;;;;;5005853;28;20065;-69
2022/05/01 05:46:37;;;;;;;9.15;8.15;;;21.70;75.50;;;;;;5002332;28;20428;-69
2022/05/01 05:49:03;;;;;;;9.15;8.35;;;22.10;71.50;;;;;;5004002;28;20042;-68
2022/05/01 05:51:28;;;;;;;8.32;7.47;;;22.60;67.80;;;;;;5006436;28;20042;-69
2022/05/01 05:53:54;;;;;;;8.40;7.70;;;23.10;65.30;;;;;;5003960;28;20045;-69
2022/05/01 05:56:21;;;;;;;10.85;8.07;;;23.50;63.50;;;;;;5002806;28;20042;-69
2022/05/01 05:58:47;;;;;;;8.75;6.97;;;23.60;61.30;;;;;;5008452;28;20092;-69
2022/05/01 06:01:13;;;;;;;7.35;6.70;;;23.60;60.10;;;;;;5006727;28;20041;-69
2022/05/01 06:03:39;;;;;;;8.00;7.30;;;23.60;59.20;;;;;;5003619;28;20042;-69
2022/05/01 06:06:05;;;;;;;8.68;7.88;;;23.40;58.90;;;;;;5035692;28;20499;-69
2022/05/01 06:08:31;;;;;;;9.48;7.57;;;23.00;60.20;;;;;;5002809;28;20038;-69
2022/05/01 06:10:56;;;;;;;7.90;7.10;;;22.40;61.50;;;;;;5003897;28;20046;-69
2022/05/01 06:13:22;;;;;;;7.68;6.97;;;21.80;63.30;;;;;;5004074;28;20639;-69
2022/05/01 06:15:48;;;;;;;7.82;7.05;;;21.40;63.90;;;;;;5004131;28;20042;-69
2022/05/01 06:18:14;;;;;;;6.90;6.30;;;20.90;65.30;;;;;;5005276;28;20033;-69
2022/05/01 06:20:40;;;;;;;6.70;6.00;;;20.50;66.00;;;;;;5007648;28;20040;-69
2022/05/01 06:23:06;;;;;;;6.85;5.93;;;20.10;66.10;;;;;;5006384;28;20073;-69
2022/05/01 06:25:31;;;;;;;7.03;6.13;;;19.60;66.50;;;;;;5006163;28;20073;-69
2022/05/01 06:27:57;;;;;;;6.55;5.95;;;19.20;67.60;;;;;;5005251;28;20515;-69
2022/05/01 06:30:22;;;;;;;6.53;5.93;;;18.80;68.20;;;;;;5005486;28;20049;-69
2022/05/01 06:32:49;;;;;;;6.63;6.03;;;18.40;69.90;;;;;;5005773;28;20141;-69
2022/05/01 06:35:16;;;;;;;5.55;5.05;;;18.20;70.90;;;;;;5008122;28;20046;-69
2022/05/01 06:37:42;;;;;;;7.20;5.30;;;18.10;71.60;;;;;;5009875;28;20580;-69
2022/05/01 06:40:08;;;;;;;6.15;5.20;;;17.90;71.60;;;;;;5012395;28;20125;-69
2022/05/01 06:42:34;;;;;;;5.50;4.00;;;17.80;72.00;;;;;;5010763;28;20049;-69
2022/05/01 06:45:00;;;;;;;5.43;4.50;;;17.60;71.90;;;;;;5008792;28;20034;-69
2022/05/01 06:47:26;;;;;;;8.05;4.63;;;17.40;72.30;;;;;;5040610;28;20064;-69
2022/05/01 06:49:51;;;;;;;7.22;5.50;;;17.20;72.60;;;;;;5010007;28;20046;-69
2022/05/01 06:52:23;;;;;;;4.25;3.25;;;17.10;72.90;;;;;;5010274;28;20038;-70
2022/05/01 06:54:52;;;;;;;3.00;2.50;;;16.90;72.10;;;;;;5027167;28;20056;-70
2022/05/01 06:57:18;;;;;;;4.50;3.15;;;16.60;73.10;;;;;;5008738;28;20038;-70
2022/05/01 06:59:44;;;;;;;4.32;3.92;;;16.30;74.00;;;;;;5008955;28;20087;-69
2022/05/01 07:02:09;;;;;;;4.85;2.97;;;16.30;73.80;;;;;;5011339;28;20029;-69
2022/05/01 07:04:35;;;;;;;6.43;3.17;;;16.20;74.50;;;;;;5009888;28;20080;-69
2022/05/01 07:07:01;;;;;;;6.28;4.13;;;16.20;74.80;;;;;;5012248;28;20480;-69
2022/05/01 07:09:27;;;;;;;4.10;2.83;;;16.30;75.30;;;;;;5008780;28;20477;-69
2022/05/01 07:11:52;;;;;;;4.03;2.95;;;16.30;75.10;;;;;;5011473;28;20124;-69
2022/05/01 07:14:18;;;;;;;7.43;4.10;;;16.30;73.90;;;;;;5010919;28;20128;-69
2022/05/01 07:16:44;;;;;;;4.35;3.95;;;16.30;74.20;;;;;;5009695;28;20156;-69
2022/05/01 07:19:09;;;;;;;2.63;2.42;;;16.40;74.40;;;;;;5009001;28;20145;-69
2022/05/01 07:21:35;;;;;;;10.35;3.90;;;16.40;73.90;;;;;;5006155;28;20034;-69
2022/05/01 07:24:00;;;;;;;6.22;4.18;;;16.50;72.90;;;;;;5010479;28;20044;-69
2022/05/01 07:26:33;;;;;;;5.28;3.05;;;16.50;72.90;;;;;;5005866;28;20572;-69
2022/05/01 07:28:59;;;;;;;5.43;3.30;;;16.40;71.80;;;;;;5004592;28;20171;-69
2022/05/01 07:31:25;;;;;;;5.00;2.95;;;16.10;72.30;;;;;;5008947;28;20079;-69
2022/05/01 07:33:51;;;;;;;5.13;3.47;;;15.90;73.00;;;;;;5007475;28;20129;-69
2022/05/01 07:36:19;;;;;;;3.45;2.90;;;15.80;74.40;;;;;;5007932;28;20191;-70
2022/05/01 07:38:45;;;;;;;3.25;2.30;;;16.00;74.90;;;;;;5007547;28;20045;-69
2022/05/01 07:41:10;;;;;;;4.25;3.25;;;16.10;75.10;;;;;;5008560;28;20447;-70
2022/05/01 07:43:36;;;;;;;4.38;3.97;;;16.30;76.80;;;;;;5008288;28;20029;-71
2022/05/01 07:46:02;;;;;;;6.22;4.28;;;16.60;76.70;;;;;;5007883;28;20092;-70
2022/05/01 07:48:28;;;;;;;4.63;3.40;;;16.80;76.80;;;;;;5024729;28;20107;-67
2022/05/01 07:50:53;;;;;;;4.47;3.38;;;16.90;73.50;;;;;;5008588;28;20184;-67
2022/05/01 07:53:19;;;;;;;4.38;3.35;;;17.00;72.70;;;;;;5009047;28;20046;-68
2022/05/01 07:55:45;;;;;;;7.60;4.25;;;17.00;72.20;;;;;;5008324;28;20046;-68
2022/05/01 07:58:10;;;;;;;4.72;3.78;;;17.00;70.90;;;;;;5004562;28;20061;-70
2022/05/01 08:00:36;;;;;;;7.13;4.10;;;17.00;73.20;;;;;;5008063;28;20381;-67
2022/05/01 08:05:45;;;;;;;5.80;2.95;;;16.60;72.60;;;;;;5005650;28;20045;-69
2022/05/01 08:08:11;;;;;;;4.50;3.10;;;16.50;75.10;;;;;;5003703;28;20050;-68
2022/05/01 08:10:37;;;;;;;9.93;3.30;;;16.60;75.50;;;;;;5004924;28;20037;-69
2022/05/01 08:13:02;;;;;;;7.10;2.92;;;16.70;76.80;;;;;;5008273;28;20081;-68
2022/05/01 08:15:28;;;;;;;2.83;2.60;;;16.90;74.40;;;;;;5008677;28;20502;-69
2022/05/01 08:21:04;;;;;;;3.97;2.90;;;17.10;74.60;;;;;;5007320;28;20041;-68
2022/05/01 08:23:24;;;;;;;5.90;3.05;;;16.90;70.50;;;;;;5038482;28;20043;-68
2022/05/01 08:25:49;;;;;;;6.88;3.00;;;16.70;71.10;;;;;;5024699;28;20046;-68
2022/05/01 08:28:15;;;;;;;4.40;3.00;;;16.50;70.30;;;;;;5005273;28;20400;-69
2022/05/01 08:30:40;;;;;;;3.28;2.75;;;16.30;71.00;;;;;;5005888;28;20173;-68
2022/05/01 08:33:06;;;;;;;5.10;3.22;;;16.20;72.30;;;;;;5006957;28;20045;-70
2022/05/01 08:35:32;;;;;;;6.63;2.60;;;16.10;73.40;;;;;;5036788;28;20161;-68
2022/05/01 08:37:57;;;;;;;3.50;2.80;;;16.00;72.10;;;;;;5009128;28;20076;-68
2022/05/01 08:40:23;;;;;;;4.30;2.45;;;15.90;71.00;;;;;;5005877;28;20627;-68
2022/05/01 08:42:50;;;;;;;3.83;2.50;;;15.80;70.20;;;;;;5040994;28;20054;-68
2022/05/01 08:45:20;;;;;;;6.05;2.88;;;15.80;70.30;;;;;;5010038;28;20653;-68
2022/05/01 08:48:07;;;;;;;4.82;2.38;;;15.70;71.30;;;;;;5006704;28;20407;-68
2022/05/01 08:50:35;;;;;;;3.85;2.67;;;15.70;70.70;;;;;;5002875;28;20051;-68
2022/05/01 08:53:05;;;;;;;4.57;2.50;;;15.70;70.90;;;;;;5007953;28;20041;-68
2022/05/01 08:55:31;;;;;;;5.35;2.95;;;15.70;70.70;;;;;;5009235;28;20077;-68
2022/05/01 08:57:59;;;;;;;5.57;3.17;;;15.60;70.80;;;;;;5007343;28;20452;-68
2022/05/01 09:00:26;;;;;;;4.30;2.92;;;15.00;70.70;;;;;;5006702;28;20037;-68
2022/05/01 09:02:52;;;;;;;4.97;2.97;;;15.00;72.50;;;;;;5007266;28;20789;-68
2022/05/01 09:05:18;;;;;;;4.53;3.05;;;15.10;73.80;;;;;;5006113;28;20266;-68
2022/05/01 09:07:43;;;;;;;5.60;3.40;;;15.20;73.40;;;;;;5007970;28;20084;-68
2022/05/01 09:10:09;;;;;;;3.47;2.88;;;15.40;73.60;;;;;;5000213;28;20078;-68
2022/05/01 09:12:52;;;;;;;3.10;2.70;;;15.10;71.80;;;;;;5008113;28;20068;-68
2022/05/01 09:15:27;;;;;;;5.78;3.17;;;15.10;73.20;;;;;;5008499;28;20038;-68
2022/05/01 09:18:03;;;;;;;3.67;3.05;;;15.20;74.00;;;;;;5038366;28;20385;-68
2022/05/01 09:20:28;;;;;;;4.68;3.25;;;15.30;73.00;;;;;;5005595;28;20052;-68
2022/05/01 09:22:55;;;;;;;3.35;3.05;;;15.40;72.80;;;;;;5006395;28;20376;-68
2022/05/01 09:25:22;;;;;;;7.85;3.17;;;15.50;72.50;;;;;;5005223;28;20054;-68
2022/05/01 09:27:49;;;;;;;4.38;3.33;;;15.60;73.00;;;;;;5005563;28;20034;-68
2022/05/01 09:30:33;;;;;;;3.88;2.65;;;15.70;72.40;;;;;;5007755;28;20096;-68
2022/05/01 09:32:59;;;;;;;5.05;2.70;;;15.70;74.50;;;;;;5004611;28;20069;-68
2022/05/01 09:35:36;;;;;;;6.15;3.58;;;15.80;72.80;;;;;;5005553;28;20509;-68
2022/05/01 09:38:26;;;;;;;3.42;2.50;;;16.00;74.30;;;;;;5005392;28;20112;-68
2022/05/01 09:41:00;;;;;;;5.63;2.95;;;16.20;72.00;;;;;;5004146;28;20049;-68
2022/05/01 09:43:46;;;;;;;4.05;3.10;;;16.30;67.80;;;;;;5004870;28;20404;-68
2022/05/01 09:46:22;;;;;;;5.00;3.13;;;16.10;68.40;;;;;;5004830;28;20050;-68
2022/05/01 09:49:03;;;;;;;4.07;2.88;;;16.10;68.50;;;;;;5006001;28;20045;-68
2022/05/01 09:51:34;;;;;;;3.25;2.40;;;16.00;72.50;;;;;;5007032;28;20050;-68
2022/05/01 09:54:04;;;;;;;4.82;2.60;;;16.10;71.70;;;;;;5005460;28;20040;-68
2022/05/01 09:56:59;;;;;;;6.75;2.53;;;16.20;70.60;;;;;;5004436;28;20489;-68
2022/05/01 09:59:27;;;;;;;4.32;2.22;;;16.20;70.80;;;;;;5006830;28;20046;-68
2022/05/01 10:02:06;;;;;;;5.22;3.05;;;16.40;69.40;;;;;;5007405;28;20138;-68
2022/05/01 10:04:33;;;;;;;3.85;2.85;;;16.50;69.50;;;;;;5007354;28;20046;-67
2022/05/01 10:07:00;;;;;;;4.30;2.65;;;16.60;68.70;;;;;;5008529;28;20042;-68
2022/05/01 10:09:29;;;;;;;2.85;2.40;;;16.60;66.80;;;;;;4995415;28;20054;-68
2022/05/01 10:11:56;;;;;;;5.70;2.38;;;16.60;65.90;;;;;;5012089;28;20141;-68
2022/05/01 10:14:23;;;;;;;3.15;2.20;;;16.70;66.00;;;;;;5010879;28;20458;-68
2022/05/01 10:16:49;;;;;;;2.75;1.80;;;16.70;65.70;;;;;;5011924;28;20380;-68
2022/05/01 10:19:17;;;;;;;4.25;2.80;;;17.10;65.10;;;;;;5012057;28;20081;-67
2022/05/01 10:21:50;;;;;;;4.75;2.53;;;17.40;64.60;;;;;;5008976;28;20033;-68
2022/05/01 10:24:17;;;;;;;3.03;2.72;;;17.40;65.70;;;;;;5034382;28;20050;-68
2022/05/01 10:27:20;;;;;;;2.92;2.63;;;17.30;65.90;;;;;;5005926;28;20045;-68
2022/05/01 10:33:26;;;;;;;5.22;2.45;;;17.20;64.20;;;;;;5009919;28;20049;-68
2022/05/01 10:36:23;;;;;;;4.13;3.10;;;17.20;64.60;;;;;;5021105;28;20104;-67
2022/05/01 10:39:14;;;;;;;5.25;3.35;;;17.30;62.80;;;;;;5010254;28;20519;-66
2022/05/01 10:41:42;;;;;;;2.75;2.53;;;17.40;63.40;;;;;;5010100;28;20117;-67
2022/05/01 10:44:07;;;;;;;6.90;2.70;;;17.70;63.40;;;;;;5009161;28;20044;-67
2022/05/01 10:46:33;;;;;;;4.25;2.50;;;17.90;65.60;;;;;;5011254;28;20120;-67
2022/05/01 10:49:05;;;;;;;5.07;2.22;;;18.00;66.50;;;;;;5010304;28;20077;-67
2022/05/01 10:51:31;;;;;;;3.42;1.95;;;17.90;66.00;;;;;;5010478;28;20128;-67
2022/05/01 10:54:15;;;;;;;5.95;2.60;;;17.70;66.00;;;;;;5011732;28;20193;-67
2022/05/01 10:56:47;;;;;;;2.83;2.10;;;17.50;66.00;;;;;;4991792;28;20531;-67
2022/05/01 10:59:31;;;;;;;2.20;1.75;;;17.20;64.80;;;;;;5010158;28;20042;-67
2022/05/01 11:02:17;;;;;;;4.85;2.35;;;16.70;64.50;;;;;;5009822;28;20045;-67
2022/05/01 11:04:42;;;;;;;4.40;2.33;;;16.50;64.70;;;;;;5010736;28;20476;-67
2022/05/01 11:07:14;;;;;;;4.15;2.47;;;16.30;65.50;;;;;;5011712;28;20037;-67
2022/05/01 11:09:42;;;;;;;7.45;3.00;;;16.10;65.30;;;;;;5010523;28;20042;-67
2022/05/01 11:12:09;;;;;;;3.88;2.63;;;16.00;66.60;;;;;;5009832;28;20041;-66
2022/05/01 11:14:35;;;;;;;4.15;2.75;;;15.90;66.40;;;;;;5010151;28;20050;-67
2022/05/01 11:17:04;;;;;;;7.50;2.75;;;15.90;65.60;;;;;;5010866;28;20093;-67
2022/05/01 11:19:41;;;;;;;4.05;2.35;;;15.90;65.70;;;;;;5010094;28;20388;-67
2022/05/01 11:22:08;;;;;;;5.45;2.45;;;15.90;65.20;;;;;;5007707;28;20118;-67
2022/05/01 11:24:41;;;;;;;4.30;2.90;;;15.80;66.00;;;;;;5010450;28;20081;-67
2022/05/01 11:27:14;;;;;;;4.28;2.85;;;15.70;67.20;;;;;;5010883;28;20056;-66
2022/05/01 11:30:05;;;;;;;5.95;3.28;;;15.50;68.80;;;;;;5009185;28;20049;-67
2022/05/01 11:33:04;;;;;;;3.58;2.70;;;15.50;68.20;;;;;;5009711;28;20038;-67
2022/05/01 11:35:53;;;;;;;4.88;2.90;;;15.40;68.00;;;;;;5038730;28;20046;-67
2022/05/01 11:38:20;;;;;;;5.20;2.65;;;15.40;68.20;;;;;;5009898;28;20512;-66
2022/05/01 11:41:00;;;;;;;4.38;2.95;;;15.40;67.20;;;;;;5006544;28;20053;-67
2022/05/01 11:43:28;;;;;;;2.75;2.55;;;15.30;66.50;;;;;;5003153;28;20038;-67
2022/05/01 11:45:55;;;;;;;7.72;3.20;;;15.20;68.80;;;;;;5009462;28;20053;-66
2022/05/01 11:48:21;;;;;;;4.50;2.88;;;15.20;67.50;;;;;;5009665;28;20053;-67
2022/05/01 11:50:50;;;;;;;4.95;2.50;;;15.30;68.30;;;;;;5024346;28;20050;-67
2022/05/01 11:53:18;;;;;;;3.42;2.40;;;15.40;68.60;;;;;;5037101;28;20053;-67
2022/05/01 12:04:29;;;;;;;3.05;2.25;;;16.10;66.10;;;;;;5023738;28;20297;-67
2022/05/01 12:07:00;;;;;;;4.45;2.28;;;16.00;67.20;;;;;;5007573;28;20048;-67
2022/05/01 12:09:26;;;;;;;2.58;2.30;;;16.10;67.90;;;;;;5005881;28;20919;-67
2022/05/01 12:11:52;;;;;;;31.80;3.65;;;16.10;68.20;;;;;;5005171;28;20050;-67
2022/05/01 12:14:17;;;;;;;5.57;2.53;;;16.10;68.30;;;;;;5006069;28;20053;-67
2022/05/01 12:16:46;;;;;;;16.23;2.47;;;16.10;68.70;;;;;;5006835;28;20038;-66
2022/05/01 12:19:12;;;;;;;4.43;2.47;;;16.10;68.80;;;;;;5036109;28;20081;-68
2022/05/01 12:21:37;;;;;;;6.45;2.45;;;16.00;68.60;;;;;;5004954;28;20432;-66
2022/05/01 12:24:08;;;;;;;3.83;2.10;;;16.00;68.00;;;;;;5004945;28;20060;-66
2022/05/01 12:26:37;;;;;;;3.25;2.05;;;15.90;68.50;;;;;;5003706;28;20049;-66
2022/05/01 12:29:07;;;;;;;3.33;2.17;;;15.80;68.20;;;;;;5005761;28;20054;-66
2022/05/01 12:31:53;;;;;;;3.50;2.22;;;15.70;70.80;;;;;;5040574;28;20052;-66
2022/05/01 12:34:27;;;;;;;4.65;2.30;;;15.70;70.80;;;;;;4991968;28;20181;-67
2022/05/01 12:36:54;;;;;;;3.20;2.20;;;15.60;70.40;;;;;;5006230;28;20169;-66
2022/05/01 12:39:22;;;;;;;4.60;1.60;;;15.50;69.60;;;;;;5019668;28;20041;-67
2022/05/01 12:45:13;;;;;;;4.43;2.38;;;15.60;70.90;;;;;;5003522;28;20472;-67
2022/05/01 12:47:44;;;;;;;3.88;2.08;;;15.70;72.20;;;;;;5006280;28;20104;-67
2022/05/01 12:50:24;;;;;;;5.45;2.55;;;15.80;73.00;;;;;;5003386;28;20084;-67
2022/05/01 12:52:53;;;;;;;4.10;1.95;;;16.00;72.10;;;;;;5008558;28;20073;-67
2022/05/01 12:55:21;;;;;;;5.07;2.35;;;16.20;70.10;;;;;;5038351;28;20128;-67
2022/05/01 12:57:51;;;;;;;3.25;2.17;;;16.30;70.60;;;;;;5006621;28;20049;-67
2022/05/01 13:00:38;;;;;;;4.97;2.78;;;16.50;69.80;;;;;;5005820;28;20159;-66
2022/05/01 13:03:25;;;;;;;2.83;1.88;;;16.60;69.20;;;;;;5005738;28;20100;-66
2022/05/01 13:06:07;;;;;;;7.88;1.75;;;16.70;69.30;;;;;;5007871;28;20049;-66
2022/05/01 13:08:39;;;;;;;3.17;1.60;;;16.80;71.90;;;;;;5000701;28;20573;-67
2022/05/01 13:11:15;;;;;;;7.20;2.25;;;16.90;71.80;;;;;;5039536;28;20038;-66
2022/05/01 13:14:03;;;;;;;3.58;1.85;;;17.00;69.40;;;;;;5007219;28;20037;-66
2022/05/01 13:16:32;;;;;;;2.40;1.80;;;17.00;66.40;;;;;;5008606;28;20046;-67
2022/05/01 13:18:59;;;;;;;5.80;2.25;;;16.80;68.20;;;;;;5004508;28;20100;-66
2022/05/01 13:21:28;;;;;;;2.88;1.70;;;16.70;69.90;;;;;;5007476;28;20042;-67
2022/05/01 13:24:05;;;;;;;2.30;1.95;;;16.70;68.50;;;;;;5007488;28;20054;-67
2022/05/01 13:26:30;;;;;;;2.70;1.83;;;16.70;67.30;;;;;;5007557;28;20136;-67